createdAt,value
2016-03-08T00:00:45.000Z,0
2016-03-08T00:01:45.019Z,0
2016-03-08T00:02:45.052Z,0
2016-03-08T00:03:45.040Z,0
2016-03-08T00:04:45.073Z,0
2016-03-08T00:05:45.108Z,0
2016-03-08T00:06:45.111Z,0
2016-03-08T00:07:45.097Z,0
2016-03-08T00:08:45.131Z,0
2016-03-08T00:09:45.133Z,0
2016-03-08T00:10:45.168Z,0
2016-03-08T00:11:45.202Z,0
2016-03-08T00:12:45.205Z,0
2016-03-08T00:13:45.222Z,0
2016-03-08T00:14:45.225Z,0
2016-03-08T00:15:45.227Z,0
2016-03-08T00:16:45.263Z,0
2016-03-08T00:17:45.280Z,0
2016-03-08T00:18:45.298Z,0
2016-03-08T00:19:45.301Z,0
2016-03-08T00:20:45.320Z,0
2016-03-08T00:21:45.338Z,0
2016-03-08T00:22:45.357Z,0
2016-03-08T00:23:45.374Z,0
2016-03-08T00:24:45.392Z,0
2016-03-08T00:25:45.412Z,0
2016-03-08T00:26:45.429Z,0
2016-03-08T00:27:45.463Z,0
2016-03-08T00:28:45.482Z,0
2016-03-08T00:29:45.469Z,0
2016-03-08T00:30:45.487Z,0
2016-03-08T00:31:45.506Z,0
2016-03-08T00:32:45.523Z,0
2016-03-08T00:33:45.542Z,0
2016-03-08T00:34:45.561Z,0
2016-03-08T00:35:45.578Z,0
2016-03-08T00:36:45.581Z,0
2016-03-08T00:37:45.600Z,0
2016-03-08T00:38:45.619Z,0
2016-03-08T00:39:45.636Z,0
2016-03-08T00:40:45.655Z,0
2016-03-08T00:41:45.688Z,0
2016-03-08T00:42:45.691Z,0
2016-03-08T00:43:45.710Z,0
2016-03-08T00:44:45.712Z,0
2016-03-08T00:45:45.730Z,0
2016-03-08T00:46:45.764Z,0
2016-03-08T00:47:45.783Z,0
2016-03-08T00:48:45.785Z,0
2016-03-08T00:49:45.819Z,0
2016-03-08T00:50:45.807Z,0
2016-03-08T00:51:45.824Z,0
2016-03-08T00:52:45.843Z,0
2016-03-08T00:53:45.846Z,0
2016-03-08T00:54:45.895Z,0
2016-03-08T00:55:45.882Z,0
2016-03-08T00:56:45.917Z,0
2016-03-08T00:57:45.965Z,0
2016-03-08T00:58:45.938Z,0
2016-03-08T00:59:46.003Z,0
2016-03-08T01:00:45.974Z,0
2016-03-08T01:01:45.242Z,0
2016-03-08T01:02:46.026Z,0
2016-03-08T01:03:46.029Z,0
2016-03-08T01:04:46.063Z,0
2016-03-08T01:05:45.941Z,0
2016-03-08T01:06:46.069Z,0
2016-03-08T01:07:46.086Z,0
2016-03-08T01:08:46.089Z,0
2016-03-08T01:09:46.132Z,0
2016-03-08T01:10:46.122Z,0
2016-03-08T01:11:46.113Z,0
2016-03-08T01:12:46.119Z,0
2016-03-08T01:13:46.140Z,0
2016-03-08T01:14:46.135Z,0
2016-03-08T01:15:46.196Z,0
2016-03-08T01:16:46.149Z,0
2016-03-08T01:17:46.193Z,0
2016-03-08T01:18:46.176Z,0
2016-03-08T01:19:46.223Z,0
2016-03-08T01:20:46.209Z,0
2016-03-08T01:21:46.210Z,0
2016-03-08T01:22:46.258Z,0
2016-03-08T01:23:46.242Z,0
2016-03-08T01:24:46.277Z,0
2016-03-08T01:25:46.309Z,0
2016-03-08T01:26:46.296Z,0
2016-03-08T01:27:46.313Z,0
2016-03-08T01:28:46.330Z,0
2016-03-08T01:29:46.176Z,0
2016-03-08T01:30:46.351Z,0
2016-03-08T01:31:46.400Z,0
2016-03-08T01:32:46.386Z,0
2016-03-08T01:33:46.421Z,0
2016-03-08T01:34:46.423Z,0
2016-03-08T01:35:46.471Z,0
2016-03-08T01:36:46.460Z,0
2016-03-08T01:37:46.509Z,0
2016-03-08T01:38:46.495Z,0
2016-03-08T01:39:46.343Z,0
2016-03-08T01:40:46.517Z,0
2016-03-08T01:41:46.535Z,0
2016-03-08T01:42:46.553Z,0
2016-03-08T01:43:46.572Z,0
2016-03-08T01:44:46.590Z,0
2016-03-08T01:45:46.640Z,0
2016-03-08T01:46:46.642Z,0
2016-03-08T01:47:46.629Z,0
2016-03-08T01:48:46.631Z,0
2016-03-08T01:49:46.667Z,0
2016-03-08T01:50:46.700Z,0
2016-03-08T01:51:46.686Z,0
2016-03-08T01:52:46.752Z,0
2016-03-08T01:53:46.786Z,0
2016-03-08T01:54:46.741Z,0
2016-03-08T01:55:46.745Z,0
2016-03-08T01:56:46.794Z,0
2016-03-08T01:57:46.780Z,0
2016-03-08T01:58:46.816Z,0
2016-03-08T01:59:46.865Z,0
2016-03-08T02:00:46.836Z,0
2016-03-08T02:01:46.854Z,0
2016-03-08T02:02:46.888Z,0
2016-03-08T02:03:46.907Z,0
2016-03-08T02:04:46.894Z,0
2016-03-08T02:05:46.913Z,0
2016-03-08T02:06:46.930Z,0
2016-03-08T02:07:46.995Z,0
2016-03-08T02:08:46.968Z,0
2016-03-08T02:09:46.985Z,0
2016-03-08T02:10:47.019Z,0
2016-03-08T02:11:47.007Z,0
2016-03-08T02:12:47.025Z,0
2016-03-08T02:13:47.074Z,0
2016-03-08T02:14:47.109Z,0
2016-03-08T02:15:47.079Z,0
2016-03-08T02:16:47.129Z,0
2016-03-08T02:17:47.117Z,0
2016-03-08T02:18:47.119Z,0
2016-03-08T02:19:47.137Z,0
2016-03-08T02:20:47.155Z,0
2016-03-08T02:21:47.174Z,0
2016-03-08T02:22:47.223Z,0
2016-03-08T02:23:47.211Z,0
2016-03-08T02:24:47.228Z,0
2016-03-08T02:25:47.247Z,0
2016-03-08T02:26:47.281Z,0
2016-03-08T02:27:47.268Z,0
2016-03-08T02:28:47.302Z,0
2016-03-08T02:29:47.288Z,0
2016-03-08T02:30:47.308Z,0
2016-03-08T02:31:47.357Z,0
2016-03-08T02:32:47.329Z,0
2016-03-08T02:33:47.347Z,0
2016-03-08T02:34:47.380Z,0
2016-03-08T02:35:47.383Z,0
2016-03-08T02:36:47.402Z,0
2016-03-08T02:37:47.436Z,0
2016-03-08T02:38:47.454Z,0
2016-03-08T02:39:47.440Z,0
2016-03-08T02:40:47.491Z,0
2016-03-08T02:41:47.478Z,0
2016-03-08T02:42:47.481Z,0
2016-03-08T02:43:47.530Z,0
2016-03-08T02:44:47.517Z,0
2016-03-08T02:45:47.534Z,0
2016-03-08T02:46:47.585Z,0
2016-03-08T02:47:47.572Z,0
2016-03-08T02:48:47.622Z,0
2016-03-08T02:49:47.609Z,0
2016-03-08T02:50:47.611Z,0
2016-03-08T02:51:47.630Z,0
2016-03-08T02:52:47.679Z,0
2016-03-08T02:53:47.666Z,0
2016-03-08T02:54:47.684Z,0
2016-03-08T02:55:47.718Z,0
2016-03-08T02:56:47.722Z,0
2016-03-08T02:57:47.724Z,0
2016-03-08T02:58:47.757Z,0
2016-03-08T02:59:47.760Z,0
2016-03-08T03:00:47.779Z,0
2016-03-08T03:01:47.828Z,0
2016-03-08T03:02:47.800Z,0
2016-03-08T03:03:47.693Z,0
2016-03-08T03:04:47.836Z,0
2016-03-08T03:05:47.855Z,0
2016-03-08T03:06:47.889Z,0
2016-03-08T03:07:47.891Z,0
2016-03-08T03:08:47.893Z,0
2016-03-08T03:09:47.913Z,0
2016-03-08T03:10:47.931Z,0
2016-03-08T03:11:47.949Z,0
2016-03-08T03:12:47.968Z,0
2016-03-08T03:13:47.970Z,0
2016-03-08T03:14:48.003Z,0
2016-03-08T03:15:48.023Z,0
2016-03-08T03:16:48.025Z,0
2016-03-08T03:17:48.028Z,0
2016-03-08T03:18:48.061Z,0
2016-03-08T03:19:48.126Z,0
2016-03-08T03:20:47.926Z,0
2016-03-08T03:21:48.007Z,0
2016-03-08T03:22:48.120Z,0
2016-03-08T03:23:48.137Z,0
2016-03-08T03:24:48.155Z,0
2016-03-08T03:25:48.190Z,0
2016-03-08T03:26:48.052Z,0
2016-03-08T03:27:48.195Z,0
2016-03-08T03:28:48.213Z,0
2016-03-08T03:29:48.232Z,0
2016-03-08T03:30:48.250Z,0
2016-03-08T03:31:48.253Z,0
2016-03-08T03:32:48.272Z,0
2016-03-08T03:33:48.289Z,0
2016-03-08T03:34:48.291Z,0
2016-03-08T03:35:48.327Z,0
2016-03-08T03:36:48.344Z,0
2016-03-08T03:37:48.346Z,0
2016-03-08T03:38:48.396Z,0
2016-03-08T03:39:48.384Z,0
2016-03-08T03:40:48.401Z,0
2016-03-08T03:41:48.405Z,0
2016-03-08T03:42:48.438Z,0
2016-03-08T03:43:48.441Z,0
2016-03-08T03:44:48.443Z,0
2016-03-08T03:45:48.493Z,0
2016-03-08T03:46:48.481Z,0
2016-03-08T03:47:48.514Z,0
2016-03-08T03:48:48.533Z,0
2016-03-08T03:49:48.551Z,0
2016-03-08T03:50:48.553Z,0
2016-03-08T03:51:48.573Z,0
2016-03-08T03:52:48.575Z,0
2016-03-08T03:53:48.672Z,0
2016-03-08T03:54:48.596Z,0
2016-03-08T03:55:48.630Z,0
2016-03-08T03:56:48.633Z,0
2016-03-08T03:57:48.650Z,0
2016-03-08T03:58:48.669Z,0
2016-03-08T03:59:48.703Z,0
2016-03-08T04:00:48.690Z,0
2016-03-08T04:01:48.709Z,0
2016-03-08T04:02:48.727Z,0
2016-03-08T04:03:48.776Z,0
2016-03-08T04:04:48.794Z,0
2016-03-08T04:05:48.766Z,0
2016-03-08T04:06:48.779Z,0
2016-03-08T04:07:48.812Z,0
2016-03-08T04:08:48.846Z,0
2016-03-08T04:09:48.834Z,0
2016-03-08T04:10:48.851Z,0
2016-03-08T04:11:48.870Z,0
2016-03-08T04:12:48.904Z,0
2016-03-08T04:13:48.891Z,0
2016-03-08T04:14:48.910Z,0
2016-03-08T04:15:48.928Z,0
2016-03-08T04:16:48.962Z,0
2016-03-08T04:17:48.980Z,0
2016-03-08T04:18:48.983Z,0
2016-03-08T04:19:49.000Z,0
2016-03-08T04:20:49.019Z,0
2016-03-08T04:21:49.037Z,0
2016-03-08T04:22:49.040Z,0
2016-03-08T04:23:49.043Z,0
2016-03-08T04:24:49.061Z,0
2016-03-08T04:25:49.111Z,0
2016-03-08T04:26:49.097Z,0
2016-03-08T04:27:49.100Z,0
2016-03-08T04:28:49.119Z,0
2016-03-08T04:29:49.152Z,0
2016-03-08T04:30:49.171Z,0
2016-03-08T04:31:49.173Z,0
2016-03-08T04:32:49.177Z,0
2016-03-08T04:33:49.195Z,0
2016-03-08T04:34:49.213Z,0
2016-03-08T04:35:49.232Z,0
2016-03-08T04:36:49.281Z,0
2016-03-08T04:37:49.268Z,0
2016-03-08T04:38:49.271Z,0
2016-03-08T04:39:49.289Z,0
2016-03-08T04:40:49.307Z,0
2016-03-08T04:41:49.325Z,0
2016-03-08T04:42:49.329Z,0
2016-03-08T04:43:49.362Z,0
2016-03-08T04:44:49.365Z,0
2016-03-08T04:45:49.399Z,0
2016-03-08T04:46:49.417Z,0
2016-03-08T04:47:49.404Z,0
2016-03-08T04:48:49.423Z,0
2016-03-08T04:49:49.442Z,0
2016-03-08T04:50:49.444Z,0
2016-03-08T04:51:49.461Z,0
2016-03-08T04:52:49.324Z,0
2016-03-08T04:53:49.514Z,0
2016-03-08T04:54:49.516Z,0
2016-03-08T04:55:49.536Z,0
2016-03-08T04:56:49.600Z,0
2016-03-08T04:57:49.399Z,0
2016-03-08T04:58:49.574Z,0
2016-03-08T04:59:49.608Z,0
2016-03-08T05:00:49.596Z,0
2016-03-08T05:01:49.613Z,0
2016-03-08T05:02:49.663Z,0
2016-03-08T05:03:49.651Z,0
2016-03-08T05:04:49.653Z,0
2016-03-08T05:05:49.563Z,0
2016-03-08T05:06:49.690Z,0
2016-03-08T05:07:49.693Z,0
2016-03-08T05:08:49.757Z,0
2016-03-08T05:09:49.760Z,0
2016-03-08T05:10:49.748Z,0
2016-03-08T05:11:49.765Z,0
2016-03-08T05:12:49.784Z,0
2016-03-08T05:13:49.803Z,0
2016-03-08T05:14:49.836Z,0
2016-03-08T05:15:49.824Z,0
2016-03-08T05:16:49.842Z,0
2016-03-08T05:17:49.860Z,0
2016-03-08T05:18:49.878Z,0
2016-03-08T05:19:49.897Z,0
2016-03-08T05:20:49.899Z,0
2016-03-08T05:21:49.917Z,0
2016-03-08T05:22:49.935Z,0
2016-03-08T05:23:49.970Z,0
2016-03-08T05:24:49.988Z,0
2016-03-08T05:25:49.975Z,0
2016-03-08T05:26:49.994Z,0
2016-03-08T05:27:49.996Z,0
2016-03-08T05:28:50.030Z,0
2016-03-08T05:29:50.032Z,0
2016-03-08T05:30:50.067Z,0
2016-03-08T05:31:50.054Z,0
2016-03-08T05:32:50.087Z,0
2016-03-08T05:33:50.384Z,0
2016-03-08T05:34:53.678Z,0
2016-03-08T05:35:49.946Z,0
2016-03-08T05:36:49.963Z,0
2016-03-08T05:37:51.652Z,0
2016-03-08T05:38:50.237Z,0
2016-03-08T05:39:50.176Z,0
2016-03-08T05:40:50.554Z,0
2016-03-08T05:41:50.228Z,0
2016-03-08T05:42:50.201Z,0
2016-03-08T05:43:50.234Z,0
2016-03-08T05:44:50.268Z,0
2016-03-08T05:45:50.240Z,0
2016-03-08T05:46:50.273Z,0
2016-03-08T05:47:50.308Z,0
2016-03-08T05:48:50.302Z,0
2016-03-08T05:49:50.336Z,0
2016-03-08T05:50:50.322Z,0
2016-03-08T05:51:50.450Z,0
2016-03-08T05:52:50.375Z,0
2016-03-08T05:53:50.377Z,0
2016-03-08T05:54:50.365Z,0
2016-03-08T05:55:50.399Z,0
2016-03-08T05:56:52.385Z,0
2016-03-08T05:57:50.435Z,0
2016-03-08T05:58:50.438Z,0
2016-03-08T05:59:50.456Z,0
2016-03-08T06:00:50.459Z,0
2016-03-08T06:01:50.476Z,0
2016-03-08T06:02:50.512Z,0
2016-03-08T06:03:50.514Z,0
2016-03-08T06:04:50.532Z,0
2016-03-08T06:05:50.550Z,0
2016-03-08T06:06:50.559Z,0
2016-03-08T06:07:50.561Z,0
2016-03-08T06:08:50.594Z,0
2016-03-08T06:09:50.628Z,0
2016-03-08T06:10:50.616Z,0
2016-03-08T06:11:50.634Z,0
2016-03-08T06:12:50.652Z,0
2016-03-08T06:13:50.671Z,0
2016-03-08T06:14:50.720Z,0
2016-03-08T06:15:50.691Z,0
2016-03-08T06:16:50.695Z,0
2016-03-08T06:17:50.713Z,0
2016-03-08T06:18:50.747Z,0
2016-03-08T06:19:51.046Z,0
2016-03-08T06:20:51.033Z,0
2016-03-08T06:21:50.771Z,0
2016-03-08T06:22:50.804Z,0
2016-03-08T06:23:50.807Z,0
2016-03-08T06:24:50.826Z,0
2016-03-08T06:25:50.844Z,0
2016-03-08T06:26:50.862Z,0
2016-03-08T06:27:50.849Z,0
2016-03-08T06:28:50.867Z,0
2016-03-08T06:29:50.917Z,0
2016-03-08T06:30:50.903Z,0
2016-03-08T06:31:50.923Z,0
2016-03-08T06:32:50.925Z,0
2016-03-08T06:33:50.943Z,0
2016-03-08T06:34:50.961Z,0
2016-03-08T06:35:50.980Z,0
2016-03-08T06:36:51.014Z,0
2016-03-08T06:37:51.000Z,0
2016-03-08T06:38:51.035Z,0
2016-03-08T06:39:51.037Z,0
2016-03-08T06:40:51.039Z,0
2016-03-08T06:41:51.074Z,0
2016-03-08T06:42:51.077Z,0
2016-03-08T06:43:51.095Z,0
2016-03-08T06:44:51.129Z,5
2016-03-08T06:45:51.116Z,5
2016-03-08T06:46:51.150Z,5
2016-03-08T06:47:51.137Z,5
2016-03-08T06:48:51.172Z,5
2016-03-08T06:49:51.189Z,5
2016-03-08T06:50:51.192Z,5
2016-03-08T06:51:51.194Z,5
2016-03-08T06:52:51.260Z,5
2016-03-08T06:53:51.232Z,5
2016-03-08T06:54:51.249Z,5
2016-03-08T06:55:51.299Z,5
2016-03-08T06:56:51.349Z,5
2016-03-08T06:57:51.305Z,5
2016-03-08T06:58:51.354Z,5
2016-03-08T06:59:51.310Z,5
2016-03-08T07:00:51.344Z,5
2016-03-08T07:01:51.378Z,5
2016-03-08T07:02:51.348Z,5
2016-03-08T07:03:51.384Z,5
2016-03-08T07:04:51.401Z,5
2016-03-08T07:05:51.403Z,5
2016-03-08T07:06:51.422Z,5
2016-03-08T07:07:51.441Z,5
2016-03-08T07:08:51.490Z,10
2016-03-08T07:09:51.462Z,10
2016-03-08T07:10:51.512Z,10
2016-03-08T07:11:51.373Z,10
2016-03-08T07:12:51.344Z,10
2016-03-08T07:13:51.535Z,10
2016-03-08T07:14:51.553Z,10
2016-03-08T07:15:51.541Z,10
2016-03-08T07:16:51.574Z,10
2016-03-08T07:17:51.468Z,10
2016-03-08T07:18:51.596Z,10
2016-03-08T07:19:51.629Z,10
2016-03-08T07:20:51.633Z,10
2016-03-08T07:21:51.682Z,10
2016-03-08T07:22:51.638Z,15
2016-03-08T07:23:51.702Z,15
2016-03-08T07:24:51.674Z,15
2016-03-08T07:25:51.693Z,15
2016-03-08T07:26:51.726Z,15
2016-03-08T07:27:51.713Z,15
2016-03-08T07:28:51.732Z,15
2016-03-08T07:29:51.796Z,15
2016-03-08T07:30:51.768Z,15
2016-03-08T07:31:51.787Z,15
2016-03-08T07:32:51.821Z,15
2016-03-08T07:33:51.823Z,15
2016-03-08T07:34:51.857Z,15
2016-03-08T07:35:51.876Z,15
2016-03-08T07:36:51.862Z,15
2016-03-08T07:37:51.864Z,15
2016-03-08T07:38:51.883Z,15
2016-03-08T07:39:51.902Z,15
2016-03-08T07:40:51.920Z,20
2016-03-08T07:41:51.923Z,20
2016-03-08T07:42:51.942Z,20
2016-03-08T07:43:51.959Z,15
2016-03-08T07:44:51.977Z,15
2016-03-08T07:45:51.997Z,15
2016-03-08T07:46:51.999Z,15
2016-03-08T07:47:52.049Z,15
2016-03-08T07:48:52.035Z,15
2016-03-08T07:49:51.757Z,15
2016-03-08T07:50:52.057Z,15
2016-03-08T07:51:52.090Z,15
2016-03-08T07:52:52.109Z,15
2016-03-08T07:53:52.111Z,15
2016-03-08T07:54:52.114Z,15
2016-03-08T07:55:52.132Z,15
2016-03-08T07:56:52.166Z,15
2016-03-08T07:57:52.169Z,15
2016-03-08T07:58:52.154Z,15
2016-03-08T07:59:52.188Z,15
2016-03-08T08:00:52.207Z,15
2016-03-08T08:01:52.224Z,15
2016-03-08T08:02:52.259Z,15
2016-03-08T08:03:52.246Z,15
2016-03-08T08:04:52.279Z,15
2016-03-08T08:05:52.392Z,15
2016-03-08T08:06:52.332Z,20
2016-03-08T08:07:52.319Z,20
2016-03-08T08:08:52.337Z,20
2016-03-08T08:09:52.340Z,20
2016-03-08T08:10:52.343Z,15
2016-03-08T08:11:52.376Z,15
2016-03-08T08:12:52.394Z,15
2016-03-08T08:13:52.445Z,15
2016-03-08T08:14:51.666Z,15
2016-03-08T08:15:52.419Z,15
2016-03-08T08:16:52.453Z,15
2016-03-08T08:17:52.455Z,15
2016-03-08T08:18:52.536Z,15
2016-03-08T08:19:52.522Z,15
2016-03-08T08:20:52.495Z,15
2016-03-08T08:21:52.528Z,15
2016-03-08T08:22:52.546Z,10
2016-03-08T08:23:52.580Z,10
2016-03-08T08:24:52.568Z,10
2016-03-08T08:25:52.617Z,10
2016-03-08T08:26:52.620Z,10
2016-03-08T08:27:52.607Z,10
2016-03-08T08:28:52.625Z,10
2016-03-08T08:29:52.832Z,10
2016-03-08T08:30:52.740Z,10
2016-03-08T08:31:52.665Z,10
2016-03-08T08:32:52.683Z,10
2016-03-08T08:33:52.701Z,10
2016-03-08T08:34:52.704Z,10
2016-03-08T08:35:52.769Z,10
2016-03-08T08:36:52.756Z,10
2016-03-08T08:37:52.774Z,10
2016-03-08T08:38:52.621Z,10
2016-03-08T08:39:52.796Z,10
2016-03-08T08:40:52.815Z,15
2016-03-08T08:41:52.817Z,15
2016-03-08T08:42:52.851Z,15
2016-03-08T08:43:52.837Z,15
2016-03-08T08:44:52.903Z,15
2016-03-08T08:45:52.874Z,15
2016-03-08T08:46:52.892Z,15
2016-03-08T08:47:52.911Z,15
2016-03-08T08:48:52.928Z,15
2016-03-08T08:49:52.947Z,15
2016-03-08T08:50:53.013Z,15
2016-03-08T08:51:52.969Z,15
2016-03-08T08:52:53.002Z,15
2016-03-08T08:53:52.989Z,15
2016-03-08T08:54:53.008Z,15
2016-03-08T08:55:53.042Z,20
2016-03-08T08:56:53.044Z,20
2016-03-08T08:57:53.078Z,20
2016-03-08T08:58:53.066Z,20
2016-03-08T08:59:53.146Z,20
2016-03-08T09:00:53.102Z,20
2016-03-08T09:01:53.136Z,20
2016-03-08T09:02:53.138Z,20
2016-03-08T09:03:53.141Z,20
2016-03-08T09:04:53.206Z,20
2016-03-08T09:05:53.210Z,20
2016-03-08T09:06:53.087Z,20
2016-03-08T09:07:53.199Z,20
2016-03-08T09:08:53.249Z,20
2016-03-08T09:09:53.220Z,20
2016-03-08T09:10:53.254Z,20
2016-03-08T09:11:53.101Z,20
2016-03-08T09:12:53.306Z,20
2016-03-08T09:13:53.300Z,25
2016-03-08T09:14:53.303Z,25
2016-03-08T09:15:53.353Z,25
2016-03-08T09:16:53.339Z,25
2016-03-08T09:17:53.388Z,25
2016-03-08T09:18:53.377Z,25
2016-03-08T09:19:53.457Z,25
2016-03-08T09:20:53.413Z,30
2016-03-08T09:21:53.431Z,30
2016-03-08T09:22:53.277Z,30
2016-03-08T09:23:53.436Z,30
2016-03-08T09:24:53.455Z,30
2016-03-08T09:25:53.489Z,25
2016-03-08T09:26:53.491Z,25
2016-03-08T09:27:53.510Z,25
2016-03-08T09:28:53.529Z,25
2016-03-08T09:29:53.546Z,25
2016-03-08T09:30:53.565Z,25
2016-03-08T09:31:53.567Z,25
2016-03-08T09:32:53.585Z,20
2016-03-08T09:33:53.603Z,20
2016-03-08T09:34:53.638Z,20
2016-03-08T09:35:53.625Z,20
2016-03-08T09:36:53.658Z,20
2016-03-08T09:37:53.677Z,20
2016-03-08T09:38:53.695Z,20
2016-03-08T09:39:53.698Z,20
2016-03-08T09:40:53.701Z,20
2016-03-08T09:41:53.734Z,20
2016-03-08T09:42:53.737Z,20
2016-03-08T09:43:53.755Z,20
2016-03-08T09:44:53.806Z,20
2016-03-08T09:45:53.777Z,20
2016-03-08T09:46:53.810Z,20
2016-03-08T09:47:53.830Z,20
2016-03-08T09:48:53.847Z,20
2016-03-08T09:49:53.881Z,20
2016-03-08T09:50:53.884Z,20
2016-03-08T09:51:53.871Z,20
2016-03-08T09:52:53.905Z,20
2016-03-08T09:53:53.923Z,20
2016-03-08T09:54:53.941Z,20
2016-03-08T09:55:53.991Z,20
2016-03-08T09:56:53.962Z,20
2016-03-08T09:57:53.996Z,20
2016-03-08T09:58:53.984Z,20
2016-03-08T09:59:54.002Z,20
2016-03-08T10:00:54.035Z,20
2016-03-08T10:01:54.038Z,20
2016-03-08T10:02:54.056Z,20
2016-03-08T10:03:54.091Z,20
2016-03-08T10:04:54.093Z,20
2016-03-08T10:05:54.112Z,20
2016-03-08T10:06:54.116Z,20
2016-03-08T10:07:54.165Z,20
2016-03-08T10:08:54.246Z,20
2016-03-08T10:09:54.171Z,20
2016-03-08T10:10:54.188Z,20
2016-03-08T10:11:54.223Z,20
2016-03-08T10:12:54.210Z,20
2016-03-08T10:13:54.228Z,20
2016-03-08T10:14:54.246Z,20
2016-03-08T10:15:54.258Z,20
2016-03-08T10:16:54.283Z,15
2016-03-08T10:17:54.275Z,20
2016-03-08T10:18:54.268Z,20
2016-03-08T10:19:54.277Z,20
2016-03-08T10:20:54.304Z,20
2016-03-08T10:21:54.320Z,20
2016-03-08T10:22:54.319Z,20
2016-03-08T10:23:54.348Z,20
2016-03-08T10:24:54.332Z,20
2016-03-08T10:25:54.380Z,20
2016-03-08T10:26:54.366Z,20
2016-03-08T10:27:54.383Z,25
2016-03-08T10:28:54.416Z,25
2016-03-08T10:29:54.402Z,25
2016-03-08T10:30:54.451Z,25
2016-03-08T10:31:54.437Z,25
2016-03-08T10:32:54.517Z,25
2016-03-08T10:33:54.488Z,25
2016-03-08T10:34:54.491Z,25
2016-03-08T10:35:54.493Z,25
2016-03-08T10:36:54.543Z,25
2016-03-08T10:37:54.560Z,25
2016-03-08T10:38:54.562Z,25
2016-03-08T10:39:54.580Z,25
2016-03-08T10:40:54.614Z,25
2016-03-08T10:41:54.617Z,25
2016-03-08T10:42:54.651Z,25
2016-03-08T10:43:54.654Z,25
2016-03-08T10:44:54.703Z,25
2016-03-08T10:45:54.674Z,25
2016-03-08T10:46:54.694Z,25
2016-03-08T10:47:54.727Z,25
2016-03-08T10:48:54.729Z,25
2016-03-08T10:49:54.764Z,25
2016-03-08T10:50:54.766Z,25
2016-03-08T10:51:54.768Z,25
2016-03-08T10:52:54.804Z,25
2016-03-08T10:53:55.462Z,25
2016-03-08T10:54:54.824Z,25
2016-03-08T10:55:54.874Z,25
2016-03-08T10:56:54.845Z,25
2016-03-08T10:57:54.878Z,25
2016-03-08T10:58:54.913Z,25
2016-03-08T10:59:54.915Z,25
2016-03-08T11:00:54.933Z,25
2016-03-08T11:01:54.937Z,25
2016-03-08T11:02:54.970Z,25
2016-03-08T11:03:54.989Z,25
2016-03-08T11:04:55.007Z,25
2016-03-08T11:05:54.994Z,25
2016-03-08T11:06:55.059Z,25
2016-03-08T11:07:55.078Z,25
2016-03-08T11:08:55.127Z,25
2016-03-08T11:09:55.099Z,25
2016-03-08T11:10:55.117Z,25
2016-03-08T11:11:55.135Z,30
2016-03-08T11:12:55.139Z,35
2016-03-08T11:13:55.172Z,35
2016-03-08T11:14:55.174Z,35
2016-03-08T11:15:55.209Z,30
2016-03-08T11:16:55.211Z,25
2016-03-08T11:17:55.213Z,25
2016-03-08T11:18:55.263Z,25
2016-03-08T11:19:55.266Z,30
2016-03-08T11:20:55.269Z,30
2016-03-08T11:21:55.302Z,35
2016-03-08T11:22:55.321Z,40
2016-03-08T11:23:55.354Z,50
2016-03-08T11:24:55.342Z,60
2016-03-08T11:25:55.376Z,60
2016-03-08T11:26:55.378Z,60
2016-03-08T11:27:55.398Z,65
2016-03-08T11:28:55.415Z,60
2016-03-08T11:29:55.434Z,60
2016-03-08T11:30:55.468Z,55
2016-03-08T11:31:55.486Z,50
2016-03-08T11:32:55.520Z,50
2016-03-08T11:33:55.507Z,50
2016-03-08T11:34:55.556Z,50
2016-03-08T11:35:55.544Z,45
2016-03-08T11:36:55.561Z,45
2016-03-08T11:37:55.596Z,40
2016-03-08T11:38:55.598Z,35
2016-03-08T11:39:55.632Z,35
2016-03-08T11:40:55.667Z,30
2016-03-08T11:41:55.653Z,30
2016-03-08T11:42:55.687Z,30
2016-03-08T11:43:55.691Z,30
2016-03-08T11:44:55.709Z,30
2016-03-08T11:45:55.742Z,30
2016-03-08T11:46:55.824Z,35
2016-03-08T11:47:55.764Z,40
2016-03-08T11:48:55.813Z,40
2016-03-08T11:49:55.815Z,40
2016-03-08T11:50:55.849Z,40
2016-03-08T11:51:55.852Z,35
2016-03-08T11:52:55.854Z,35
2016-03-08T11:53:55.904Z,35
2016-03-08T11:54:55.907Z,30
2016-03-08T11:55:55.973Z,25
2016-03-08T11:56:55.943Z,20
2016-03-08T11:57:56.009Z,15
2016-03-08T11:58:55.965Z,15
2016-03-08T11:59:56.029Z,15
2016-03-08T12:00:56.018Z,10
2016-03-08T12:01:56.129Z,10
2016-03-08T12:02:56.069Z,10
2016-03-08T12:03:56.057Z,10
2016-03-08T12:04:56.075Z,10
2016-03-08T12:05:56.126Z,15
2016-03-08T12:06:56.144Z,15
2016-03-08T12:07:56.147Z,15
2016-03-08T12:08:56.213Z,15
2016-03-08T12:09:56.199Z,10
2016-03-08T12:10:56.233Z,10
2016-03-08T12:11:55.486Z,10
2016-03-08T12:12:56.316Z,10
2016-03-08T12:13:56.273Z,15
2016-03-08T12:14:56.276Z,15
2016-03-08T12:15:56.341Z,15
2016-03-08T12:16:56.327Z,15
2016-03-08T12:17:56.330Z,15
2016-03-08T12:18:56.365Z,15
2016-03-08T12:19:56.664Z,20
2016-03-08T12:20:56.416Z,20
2016-03-08T12:21:56.404Z,20
2016-03-08T12:22:56.468Z,20
2016-03-08T12:23:56.456Z,20
2016-03-08T12:24:56.490Z,20
2016-03-08T12:25:56.492Z,25
2016-03-08T12:26:56.511Z,25
2016-03-08T12:27:56.528Z,25
2016-03-08T12:28:56.548Z,30
2016-03-08T12:29:56.597Z,30
2016-03-08T12:30:56.584Z,30
2016-03-08T12:31:56.634Z,30
2016-03-08T12:32:56.652Z,25
2016-03-08T12:33:56.670Z,25
2016-03-08T12:34:55.922Z,25
2016-03-08T12:35:56.707Z,20
2016-03-08T12:36:56.710Z,20
2016-03-08T12:37:56.758Z,20
2016-03-08T12:38:56.747Z,20
2016-03-08T12:39:56.764Z,20
2016-03-08T12:40:56.798Z,20
2016-03-08T12:41:56.801Z,20
2016-03-08T12:42:56.851Z,20
2016-03-08T12:43:56.838Z,20
2016-03-08T12:44:56.871Z,20
2016-03-08T12:45:56.875Z,20
2016-03-08T12:46:56.752Z,20
2016-03-08T12:47:56.926Z,20
2016-03-08T12:48:56.946Z,20
2016-03-08T12:49:56.995Z,25
2016-03-08T12:50:56.981Z,25
2016-03-08T12:51:57.000Z,25
2016-03-08T12:52:57.018Z,30
2016-03-08T12:53:57.052Z,30
2016-03-08T12:54:57.070Z,30
2016-03-08T12:55:57.073Z,30
2016-03-08T12:56:57.123Z,30
2016-03-08T12:57:57.141Z,30
2016-03-08T12:58:57.144Z,30
2016-03-08T12:59:57.162Z,30
2016-03-08T13:00:57.181Z,30
2016-03-08T13:01:57.198Z,25
2016-03-08T13:02:57.233Z,25
2016-03-08T13:03:57.251Z,25
2016-03-08T13:04:57.253Z,20
2016-03-08T13:05:57.301Z,20
2016-03-08T13:06:57.289Z,20
2016-03-08T13:07:57.339Z,20
2016-03-08T13:08:57.341Z,20
2016-03-08T13:09:57.375Z,20
2016-03-08T13:10:57.378Z,20
2016-03-08T13:11:57.428Z,15
2016-03-08T13:12:57.415Z,15
2016-03-08T13:13:57.448Z,15
2016-03-08T13:14:57.451Z,20
2016-03-08T13:15:57.470Z,20
2016-03-08T13:16:57.488Z,20
2016-03-08T13:17:57.537Z,20
2016-03-08T13:18:57.540Z,20
2016-03-08T13:19:57.558Z,20
2016-03-08T13:20:57.623Z,25
2016-03-08T13:21:57.580Z,25
2016-03-08T13:22:57.598Z,25
2016-03-08T13:23:57.678Z,25
2016-03-08T13:24:57.650Z,25
2016-03-08T13:25:57.700Z,25
2016-03-08T13:26:57.686Z,25
2016-03-08T13:27:57.752Z,25
2016-03-08T13:28:57.755Z,25
2016-03-08T13:29:57.741Z,25
2016-03-08T13:30:57.760Z,25
2016-03-08T13:31:57.810Z,20
2016-03-08T13:32:57.797Z,20
2016-03-08T13:33:57.846Z,20
2016-03-08T13:34:57.848Z,20
2016-03-08T13:35:57.852Z,25
2016-03-08T13:36:57.885Z,25
2016-03-08T13:37:57.919Z,25
2016-03-08T13:38:57.954Z,25
2016-03-08T13:39:57.940Z,25
2016-03-08T13:40:57.959Z,25
2016-03-08T13:41:58.008Z,20
2016-03-08T13:42:57.980Z,20
2016-03-08T13:43:57.873Z,20
2016-03-08T13:44:58.048Z,20
2016-03-08T13:45:58.066Z,20
2016-03-08T13:46:58.084Z,20
2016-03-08T13:47:58.087Z,20
2016-03-08T13:48:58.136Z,20
2016-03-08T13:49:58.139Z,20
2016-03-08T13:50:58.173Z,25
2016-03-08T13:51:58.188Z,25
2016-03-08T13:52:58.191Z,25
2016-03-08T13:53:58.241Z,30
2016-03-08T13:54:58.243Z,30
2016-03-08T13:55:58.246Z,30
2016-03-08T13:56:58.296Z,35
2016-03-08T13:57:58.283Z,35
2016-03-08T13:58:58.363Z,30
2016-03-08T13:59:58.335Z,30
2016-03-08T14:00:58.385Z,30
2016-03-08T14:01:58.372Z,35
2016-03-08T14:02:58.390Z,35
2016-03-08T14:03:58.408Z,35
2016-03-08T14:04:58.427Z,35
2016-03-08T14:05:58.460Z,30
2016-03-08T14:06:58.494Z,30
2016-03-08T14:07:58.498Z,30
2016-03-08T14:08:58.515Z,35
2016-03-08T14:09:58.534Z,35
2016-03-08T14:10:58.568Z,40
2016-03-08T14:11:58.570Z,40
2016-03-08T14:12:58.604Z,40
2016-03-08T14:13:58.622Z,35
2016-03-08T14:14:58.625Z,35
2016-03-08T14:15:58.659Z,35
2016-03-08T14:16:58.662Z,35
2016-03-08T14:17:58.696Z,35
2016-03-08T14:18:58.730Z,30
2016-03-08T14:19:58.733Z,30
2016-03-08T14:20:58.751Z,30
2016-03-08T14:21:58.769Z,25
2016-03-08T14:22:58.803Z,25
2016-03-08T14:23:58.806Z,25
2016-03-08T14:24:58.855Z,25
2016-03-08T14:25:58.858Z,25
2016-03-08T14:26:58.924Z,25
2016-03-08T14:27:58.910Z,30
2016-03-08T14:28:58.913Z,30
2016-03-08T14:29:58.932Z,35
2016-03-08T14:30:58.950Z,35